createdAt,value
2023-05-19T00:00:02.153Z,69.23
2023-05-19T00:05:01.026Z,69.07
2023-05-19T00:10:00.714Z,68.99
2023-05-19T00:15:00.674Z,69.32
2023-05-19T00:20:00.515Z,70.46
2023-05-19T00:25:00.485Z,70.45
2023-05-19T00:30:00.675Z,71.19
2023-05-19T00:35:00.543Z,70.18
2023-05-19T00:40:00.538Z,70.03
2023-05-19T00:45:00.638Z,71.62
2023-05-19T00:50:00.562Z,72.53
2023-05-19T00:55:00.544Z,73.13
2023-05-19T01:00:02.018Z,72.70
2023-05-19T01:05:00.927Z,72.00
2023-05-19T01:10:00.569Z,71.47
2023-05-19T01:15:01.472Z,72.80
2023-05-19T01:20:20.377Z,72.25
2023-05-19T01:25:17.757Z,73.18
2023-05-19T01:30:17.960Z,73.72
2023-05-19T01:35:03.251Z,73.28
2023-05-19T01:40:00.546Z,74.52
2023-05-19T01:45:01.516Z,74.26
2023-05-19T01:50:00.561Z,75.65
2023-05-19T01:55:00.524Z,73.54
2023-05-19T02:00:15.224Z,74.90
2023-05-19T02:05:10.488Z,76.30
2023-05-19T02:10:09.464Z,74.17
2023-05-19T02:15:04.970Z,75.34
2023-05-19T02:20:01.844Z,75.43
2023-05-19T02:25:00.921Z,74.77
2023-05-19T02:30:00.552Z,76.34
2023-05-19T02:35:00.780Z,76.60
2023-05-19T02:40:00.604Z,75.87
2023-05-19T02:45:00.553Z,76.12
2023-05-19T02:50:00.496Z,75.96
2023-05-19T02:55:00.482Z,76.07
2023-05-19T03:00:01.154Z,76.92
2023-05-19T03:05:00.510Z,76.50
2023-05-19T03:10:00.710Z,76.70
2023-05-19T03:15:00.475Z,76.88
2023-05-19T03:20:00.748Z,76.87
2023-05-19T03:25:00.660Z,77.84
2023-05-19T03:30:00.477Z,77.60
2023-05-19T03:35:00.487Z,77.44
2023-05-19T03:40:00.602Z,77.94
2023-05-19T03:45:00.562Z,77.96
2023-05-19T03:50:00.506Z,78.51
2023-05-19T03:55:00.502Z,78.06
2023-05-19T04:00:01.290Z,78.32
2023-05-19T04:05:00.479Z,79.07
2023-05-19T04:10:03.193Z,80.45
2023-05-19T04:15:00.596Z,79.64
2023-05-19T04:20:00.482Z,79.33
2023-05-19T04:25:00.543Z,79.80
2023-05-19T04:30:00.497Z,79.91
2023-05-19T04:35:00.552Z,79.16
2023-05-19T04:40:00.526Z,79.30
2023-05-19T04:45:00.506Z,79.18
2023-05-19T04:50:00.492Z,79.61
2023-05-19T04:55:00.526Z,79.23
2023-05-19T05:00:01.275Z,78.97
2023-05-19T05:05:00.484Z,79.35
2023-05-19T05:10:00.511Z,79.06
2023-05-19T05:15:00.779Z,80.40
2023-05-19T05:20:01.020Z,79.88
2023-05-19T05:25:01.541Z,79.26
2023-05-19T05:30:00.473Z,79.25
2023-05-19T05:35:00.674Z,79.17
2023-05-19T05:40:00.492Z,78.05
2023-05-19T05:45:02.889Z,77.09
2023-05-19T05:50:00.831Z,76.99
2023-05-19T05:55:00.925Z,76.95
2023-05-19T06:00:01.084Z,75.49
2023-05-19T06:05:00.574Z,68.84
2023-05-19T06:10:00.566Z,61.35
2023-05-19T06:15:02.206Z,61.96
2023-05-19T06:20:01.373Z,57.01
2023-05-19T06:25:00.509Z,57.22
2023-05-19T06:30:01.111Z,57.89
2023-05-19T06:35:00.536Z,59.24
2023-05-19T06:40:00.487Z,59.55
2023-05-19T06:45:00.665Z,62.15
2023-05-19T06:50:00.512Z,61.03
2023-05-19T06:55:00.944Z,61.77
2023-05-19T07:00:01.259Z,61.95
2023-05-19T07:05:00.505Z,60.54
2023-05-19T07:10:00.623Z,59.87
2023-05-19T07:15:00.517Z,57.62
2023-05-19T07:20:00.532Z,57.39
2023-05-19T07:25:00.714Z,54.22
2023-05-19T07:30:00.510Z,54.90
2023-05-19T07:35:00.537Z,55.20
2023-05-19T07:40:00.508Z,52.83
2023-05-19T07:45:00.561Z,52.23
2023-05-19T07:50:00.509Z,51.31
2023-05-19T07:55:00.509Z,50.22
2023-05-19T08:00:01.977Z,50.60
2023-05-19T08:05:00.462Z,48.67
2023-05-19T08:10:00.724Z,49.03
2023-05-19T08:15:01.815Z,46.79
2023-05-19T08:20:00.479Z,44.64
2023-05-19T08:25:00.574Z,45.09
2023-05-19T08:30:00.507Z,45.70
2023-05-19T08:35:00.510Z,44.93
2023-05-19T08:40:00.533Z,41.95
2023-05-19T08:45:01.471Z,42.41
2023-05-19T08:50:04.754Z,40.71
2023-05-19T08:55:08.516Z,40.36
2023-05-19T09:00:03.340Z,38.68
2023-05-19T09:05:01.680Z,37.82
2023-05-19T09:10:01.196Z,36.96
2023-05-19T09:15:01.538Z,38.48
2023-05-19T09:20:01.678Z,38.50
2023-05-19T09:25:00.534Z,36.86
2023-05-19T09:30:08.059Z,38.18
2023-05-19T09:35:02.450Z,40.29
2023-05-19T09:40:00.589Z,38.36
2023-05-19T09:45:02.537Z,37.04
2023-05-19T09:50:00.480Z,36.72
2023-05-19T09:55:01.355Z,36.22
2023-05-19T10:00:02.444Z,36.27
2023-05-19T10:05:02.220Z,36.17
2023-05-19T10:10:01.700Z,36.28
2023-05-19T10:15:01.551Z,36.56
2023-05-19T10:20:01.241Z,35.88
2023-05-19T10:25:00.545Z,35.56
2023-05-19T10:30:08.824Z,34.91
2023-05-19T10:35:20.386Z,35.89
2023-05-19T10:40:07.872Z,34.02
2023-05-19T10:45:13.702Z,32.35
2023-05-19T10:50:01.080Z,34.49
2023-05-19T10:55:00.534Z,34.00
2023-05-19T11:00:13.629Z,32.60
2023-05-19T11:05:06.685Z,30.95
2023-05-19T11:10:04.785Z,32.58
2023-05-19T11:15:02.026Z,31.92
2023-05-19T11:20:00.544Z,31.31
2023-05-19T11:25:00.517Z,32.57
2023-05-19T11:30:08.376Z,31.67
2023-05-19T11:35:01.246Z,33.30
2023-05-19T11:40:01.782Z,29.75
2023-05-19T11:45:01.230Z,30.83
2023-05-19T11:50:00.702Z,29.58
2023-05-19T11:55:00.718Z,30.43
2023-05-19T12:00:02.558Z,30.07
2023-05-19T12:05:00.567Z,32.00
2023-05-19T12:10:00.636Z,31.42
2023-05-19T12:15:01.814Z,31.53
2023-05-19T12:20:01.536Z,30.50
2023-05-19T12:25:01.095Z,30.99
2023-05-19T12:30:02.650Z,31.03
2023-05-19T12:35:03.011Z,31.04
2023-05-19T12:40:01.904Z,29.73
2023-05-19T12:45:03.390Z,30.83
2023-05-19T12:50:02.185Z,28.29
2023-05-19T12:55:02.438Z,30.75
2023-05-19T13:00:12.546Z,31.05
2023-05-19T13:05:00.573Z,30.93
2023-05-19T13:10:00.524Z,31.99
2023-05-19T13:15:00.476Z,29.03
2023-05-19T13:20:00.535Z,30.50
2023-05-19T13:25:00.489Z,31.99
2023-05-19T13:30:01.057Z,33.29
2023-05-19T13:35:00.817Z,33.60
2023-05-19T13:40:01.113Z,31.62
2023-05-19T13:45:01.032Z,30.02
2023-05-19T13:50:01.895Z,31.11
2023-05-19T13:55:00.502Z,30.59
2023-05-19T14:00:03.860Z,29.83
2023-05-19T14:05:00.487Z,30.82
2023-05-19T14:10:01.729Z,30.06
2023-05-19T14:15:00.721Z,28.02
2023-05-19T14:20:00.508Z,29.13
2023-05-19T14:25:01.093Z,28.92
2023-05-19T14:30:00.571Z,30.28
2023-05-19T14:35:00.521Z,28.02
2023-05-19T14:40:00.457Z,28.88
2023-05-19T14:45:00.589Z,29.62
2023-05-19T14:50:00.504Z,28.96
2023-05-19T14:55:00.487Z,31.23
2023-05-19T15:00:00.909Z,30.33
2023-05-19T15:05:00.884Z,29.57
2023-05-19T15:10:00.535Z,28.32
2023-05-19T15:15:00.575Z,30.13
2023-05-19T15:20:00.486Z,29.73
2023-05-19T15:25:00.481Z,30.09
2023-05-19T15:30:01.659Z,30.18
2023-05-19T15:35:00.487Z,29.23
2023-05-19T15:40:00.485Z,29.47
2023-05-19T15:45:00.573Z,29.85
2023-05-19T15:50:00.477Z,30.36
2023-05-19T15:55:00.510Z,30.01
2023-05-19T16:00:01.211Z,29.76
2023-05-19T16:05:00.541Z,29.72
2023-05-19T16:10:00.568Z,30.81
2023-05-19T16:15:00.515Z,30.62
2023-05-19T16:20:00.485Z,30.81
2023-05-19T16:25:00.482Z,32.33
2023-05-19T16:30:00.569Z,31.65
2023-05-19T16:35:00.625Z,31.88
2023-05-19T16:40:00.714Z,31.53
2023-05-19T16:45:00.499Z,32.71
2023-05-19T16:50:00.506Z,34.38
2023-05-19T16:55:00.499Z,34.12
2023-05-19T17:00:01.175Z,33.74
2023-05-19T17:05:00.467Z,32.82
2023-05-19T17:10:00.483Z,33.91
2023-05-19T17:15:00.495Z,35.04
2023-05-19T17:20:00.502Z,35.10
2023-05-19T17:25:00.504Z,34.27
2023-05-19T17:30:00.782Z,35.27
2023-05-19T17:35:00.727Z,34.87
2023-05-19T17:40:00.496Z,34.78
2023-05-19T17:45:00.582Z,34.92
2023-05-19T17:50:00.472Z,34.79
2023-05-19T17:55:00.795Z,34.32
2023-05-19T18:00:02.605Z,35.11
2023-05-19T18:05:00.679Z,35.42
2023-05-19T18:10:02.385Z,35.76
2023-05-19T18:15:00.568Z,36.21
2023-05-19T18:20:00.475Z,36.82
2023-05-19T18:25:00.506Z,37.21
2023-05-19T18:30:00.514Z,38.22
2023-05-19T18:35:00.589Z,38.53
2023-05-19T18:40:00.512Z,39.21
2023-05-19T18:45:00.508Z,39.34
2023-05-19T18:50:00.528Z,40.13
2023-05-19T18:55:00.489Z,40.98
2023-05-19T19:00:01.054Z,41.10
2023-05-19T19:05:00.545Z,41.62
2023-05-19T19:10:00.497Z,42.66
2023-05-19T19:15:00.513Z,43.75
2023-05-19T19:20:00.534Z,42.76
2023-05-19T19:25:00.511Z,43.35
2023-05-19T19:30:00.709Z,43.89
2023-05-19T19:35:00.497Z,44.15
2023-05-19T19:40:00.601Z,44.54
2023-05-19T19:45:00.581Z,44.60
2023-05-19T19:50:00.557Z,45.07
2023-05-19T19:55:00.484Z,45.06
2023-05-19T20:00:01.906Z,45.53
2023-05-19T20:05:00.464Z,46.03
2023-05-19T20:10:00.502Z,46.98
2023-05-19T20:15:00.511Z,47.02
2023-05-19T20:20:00.524Z,46.58
2023-05-19T20:25:00.495Z,47.57
2023-05-19T20:30:00.598Z,47.82
2023-05-19T20:35:00.486Z,48.04
2023-05-19T20:40:00.501Z,48.51
2023-05-19T20:45:00.530Z,49.09
2023-05-19T20:50:00.490Z,48.93
2023-05-19T20:55:00.496Z,49.22
2023-05-19T21:00:01.251Z,49.63
2023-05-19T21:05:00.573Z,49.79
2023-05-19T21:10:00.566Z,49.29
2023-05-19T21:15:01.059Z,50.42
2023-05-19T21:20:00.627Z,49.82
2023-05-19T21:25:00.572Z,50.05
2023-05-19T21:30:00.489Z,50.72
2023-05-19T21:35:00.496Z,50.38
2023-05-19T21:40:00.498Z,51.77
2023-05-19T21:45:01.148Z,51.83
2023-05-19T21:50:00.491Z,51.33
2023-05-19T21:55:00.524Z,52.24
2023-05-19T22:00:02.111Z,52.01
2023-05-19T22:05:00.532Z,53.22
2023-05-19T22:10:00.625Z,53.37
2023-05-19T22:15:00.564Z,53.20
2023-05-19T22:20:00.478Z,54.73
2023-05-19T22:25:01.176Z,55.22
2023-05-19T22:30:00.485Z,55.95
2023-05-19T22:35:00.546Z,55.84
2023-05-19T22:40:00.510Z,56.79
2023-05-19T22:45:00.556Z,56.53
2023-05-19T22:50:00.548Z,56.65
2023-05-19T22:55:00.474Z,57.33
2023-05-19T23:00:01.195Z,56.82
2023-05-19T23:05:00.570Z,56.67
2023-05-19T23:10:00.689Z,57.11
2023-05-19T23:15:00.648Z,57.43
2023-05-19T23:20:00.957Z,57.48
2023-05-19T23:25:00.448Z,57.95
2023-05-19T23:30:01.376Z,58.16
2023-05-19T23:35:09.621Z,60.81
2023-05-19T23:40:00.488Z,58.66
2023-05-19T23:45:00.545Z,58.68
2023-05-19T23:50:00.511Z,59.18
2023-05-19T23:55:00.479Z,59.27
